Flight Track Log - Related Links

Times and Time Zones

All times are in EST time to prevent confusion due to time zone crossing. See the VH-FGR flight status page for this flight to view local times or setup timezone preferences in your user account.

Time Position Orientation Groundspeed Altitude Reporting Facility
EST Latitude Longitude Course Direction KTS MPH feet Rate Location/Type
Wed 01:24:44 AM -19.6886 134.1794 261° West 23,000  Level Aus ATC (Calculated)
Wed 01:24:49 AM -19.6888 134.1778 184° South 23,000  Level Aus ATC (Calculated)
Wed 01:25:24 AM -19.7429 134.1740 184° South 23,000  Level Aus ATC (Calculated)
Wed 01:27:00 AM -19.8467 134.1665 184° South  Level FlightAware Approximate
Wed 01:28:00 AM -19.9116 134.1618 184° South  Level FlightAware Approximate
Wed 01:28:24 AM -19.9049 134.1637 185° South 23,000  Level Aus ATC (Calculated)
Wed 01:29:00 AM -19.9765 134.1572 184° South  Level FlightAware Approximate
Wed 01:30:00 AM -20.0087 134.1561 184° South  Level FlightAware Approximate
Wed 01:31:00 AM -20.0736 134.1514 184° South  Level FlightAware Approximate
Wed 01:32:00 AM -20.1385 134.1467 184° South  Level FlightAware Approximate
Wed 01:33:00 AM -20.2034 134.1419 184° South  Level FlightAware Approximate
Wed 01:34:00 AM -20.2683 134.1372 184° South  Level FlightAware Approximate
Wed 01:35:00 AM -20.3333 134.1324 184° South  Level FlightAware Approximate
Wed 01:36:00 AM -20.3982 134.1277 184° South  Level FlightAware Approximate
Wed 01:37:00 AM -20.4631 134.1230 184° South  Level FlightAware Approximate
Wed 01:38:00 AM -20.5280 134.1182 184° South  Level FlightAware Approximate
Wed 01:39:00 AM -20.5929 134.1134 184° South  Level FlightAware Approximate
Wed 01:40:00 AM -20.6578 134.1087 184° South  Level FlightAware Approximate
Wed 01:40:04 AM -20.6077 134.1124 184° South 23,000  Level Aus ATC (Calculated)
Wed 01:41:54 AM -20.7158 134.1044 184° South 23,000  Level Aus ATC (Calculated)
Wed 01:42:00 AM -20.7332 134.1031 184° South  Level FlightAware Approximate
Wed 01:43:00 AM -20.7872 134.0992 184° South  Level FlightAware Approximate
Wed 01:44:00 AM -20.8521 134.0944 184° South  Level FlightAware Approximate
Wed 01:45:00 AM -20.9170 134.0896 184° South  Level FlightAware Approximate
Wed 01:46:00 AM -20.9819 134.0849 184° South  Level FlightAware Approximate
Wed 01:47:00 AM -21.0469 134.0801 184° South  Level FlightAware Approximate
Wed 01:48:00 AM -21.1118 134.0753 184° South  Level FlightAware Approximate
Wed 01:49:00 AM -21.1767 134.0705 184° South  Level FlightAware Approximate
Wed 01:50:00 AM -21.2416 134.0657 184° South  Level FlightAware Approximate
Wed 01:51:00 AM -21.3065 134.0616 184° South  Level Estimated
Wed 01:52:00 AM -21.3714 134.0569 184° South  Level FlightAware Approximate
Wed 01:52:26 AM -21.3104 134.0605 184° South 23,000  Level Aus ATC (Calculated)
Wed 01:54:00 AM -21.4121 134.0531 184° South  Level FlightAware Approximate
Wed 01:55:00 AM -21.4771 134.0484 184° South  Level FlightAware Approximate
Wed 01:55:26 AM -21.5431 134.0436 North 23,000  Level Aus ATC (Calculated)
Wed 01:56:00 AM -21.5420 134.0437 184° South  Level FlightAware Approximate
Wed 01:56:34 AM -21.6325 134.0371 184° South 23,000  Level Aus ATC (Calculated)
Wed 01:57:00 AM -21.6448 134.0362 184° South  Level FlightAware Approximate
Wed 01:57:00 AM -21.6325 134.0371 184° South 23,000  Level Aus ATC (Calculated)
Wed 01:58:00 AM -21.6974 134.0323 184° South  Level FlightAware Approximate
Wed 01:59:00 AM -21.7623 134.0276 184° South  Level FlightAware Approximate
Wed 02:00:00 AM -21.8272 134.0228 184° South  Level FlightAware Approximate
Wed 02:00:39 AM -21.9004 134.0175 North 23,000  Level Aus ATC (Calculated)
Wed 02:01:00 AM -21.8921 134.0181 184° South  Level FlightAware Approximate
Wed 02:02:00 AM -21.9880 134.0110 184° South  Level FlightAware Approximate
Wed 02:03:00 AM -22.0529 134.0063 184° South  Level FlightAware Approximate
Wed 02:04:00 AM -22.1178 134.0015 184° South  Level FlightAware Approximate
Wed 02:05:00 AM -22.1828 133.9967 184° South  Level FlightAware Approximate
Wed 02:06:00 AM -22.2477 133.9920 184° South  Level FlightAware Approximate
Wed 02:07:00 AM -22.3126 133.9872 184° South  Level FlightAware Approximate
Wed 02:08:00 AM -22.3775 133.9824 184° South  Level FlightAware Approximate
Wed 02:09:00 AM -22.4424 133.9776 184° South  Level FlightAware Approximate
Wed 02:10:00 AM -22.5073 133.9728 184° South  Level FlightAware Approximate
Wed 02:11:00 AM -22.5722 133.9680 184° South  Level FlightAware Approximate
Wed 02:12:00 AM -22.6371 133.9632 184° South  Level FlightAware Approximate
Wed 02:13:00 AM -22.7021 133.9598 184° South  Level Estimated
Wed 02:14:00 AM -22.7670 133.9550 184° South  Level FlightAware Approximate
Wed 02:14:00 AM -22.9184 133.9425 184° South 500  Level Aus ATC (Calculated)
Wed 02:15:00 AM -22.9833 133.9377 184° South  Level FlightAware Approximate
Wed 02:15:46 AM -23.1058 133.9288 North 500  Level Aus ATC (Calculated)
Wed 02:16:00 AM -23.0482 133.9330 184° South  Level FlightAware Approximate
Wed 02:17:00 AM -23.1858 133.9229 184° South  Level FlightAware Approximate
Wed 02:17:04 AM -23.1682 133.9242 184° South 500  Level Aus ATC (Calculated)
Wed 02:19:00 AM -23.2937 133.9150 184° South  Level FlightAware Approximate
Wed 02:19:15 AM -23.3556 133.9105 184° South 500  Level Aus ATC (Calculated)
Wed 02:21:00 AM -23.4692 133.9021 184° South  Level FlightAware Approximate
Wed 02:21:26 AM -23.5429 133.8967 North 500  Level Aus ATC (Calculated)
Wed 02:22:00 AM -23.5341 133.8973 184° South  Level FlightAware Approximate
Wed 02:22:49 AM -23.6054 133.8921 184° South 500  Level Aus ATC (Calculated)
Wed 02:23:00 AM -23.6446 133.8892 184° South  Level FlightAware Approximate
Wed 02:23:15 AM -23.6678 133.8875 360° North 500  Level Aus ATC (Calculated)
Wed 02:23:37 AM -23.6678 133.8875 184° South 500  Level Aus ATC (Calculated)
Wed 02:25:00 AM -23.7576 133.8808 184° South  Level FlightAware Approximate
Wed 02:25:59 AM -23.8083 133.9009 38° Northeast  Level Aus ATC (Calculated)
Wed 02:26:00 AM -23.8067 133.9022 184° South  Level Estimated
Wed 02:27:00 AM -23.8067 133.9022 307° West  Level Estimated
Wed 02:28:00 AM -23.8067 133.9022 184° South  Level Estimated
Wed 02:29:00 AM -23.8067 133.9022 184° South  Level Estimated
Wed 02:30:00 AM -23.8067 133.9022 184° South  Level Estimated
Wed 02:31:00 AM -23.8067 133.9022 184° South  Level Estimated
Wed 02:32:00 AM -23.8067 133.9022 184° South  Level Estimated
Wed 02:33:00 AM -23.8067 133.9022 184° South  Level Estimated
Wed 02:34:00 AM -23.8067 133.9022 184° South  Level Estimated
Wed 02:35:00 AM -23.8067 133.9022 184° South  Level Estimated
Wed 02:36:00 AM -23.8067 133.9022 184° South  Level Estimated
Wed 02:37:00 AM -23.8067 133.9022 184° South  Level Estimated
Wed 02:38:00 AM -23.8067 133.9022 184° South  Level Estimated
Wed 02:39:00 AM -23.8067 133.9022 184° South  Level Estimated
Wed 02:40:00 AM -23.8067 133.9022 184° South  Level Estimated
Wed 02:41:00 AM -23.8067 133.9022 184° South  Level Estimated
Wed 02:42:00 AM -23.8067 133.9022 184° South  Level Estimated
Wed 02:43:00 AM -23.8067 133.9022 184° South  Level Estimated
Wed 02:44:00 AM -23.8067 133.9022 184° South  Level Estimated

Login

Don't have an account? Register now (free) for customized features, flight alerts, and more!